Time;durP1;ratioP1;P1;durP2;ratioP2;P2;SDS_P1;SDS_P2;PMS_P1;PMS_P2;Temp;Humidity;BMP_temperature;BMP_pressure;BME280_temperature;BME280_humidity;BME280_pressure;Samples;Min_cycle;Max_cycle;Signal;HPM_P1;HPM_P2
2023/04/27 00:00:44;;;;;;;8.07;7.57;;;;;;;3.27;100.00;101763.28;5070375;28;21006;-47
2023/04/27 00:03:12;;;;;;;7.60;7.10;;;;;;;3.22;100.00;101765.47;5071168;28;20480;-50
2023/04/27 00:05:41;;;;;;;7.60;6.83;;;;;;;3.18;100.00;101766.66;5070894;28;20435;-47
2023/04/27 00:08:09;;;;;;;7.20;6.53;;;;;;;3.12;100.00;101768.00;5070828;28;20528;-44
2023/04/27 00:10:38;;;;;;;6.53;6.10;;;;;;;3.08;100.00;101771.81;5070823;28;20454;-48
2023/04/27 00:13:06;;;;;;;7.20;6.23;;;;;;;3.01;100.00;101761.91;5070858;28;20438;-45
2023/04/27 00:15:33;;;;;;;7.97;7.33;;;;;;;2.95;100.00;101771.16;5070800;28;20435;-46
2023/04/27 00:18:01;;;;;;;8.00;7.50;;;;;;;2.90;100.00;101761.94;5070213;28;21170;-45
2023/04/27 00:20:29;;;;;;;7.60;7.00;;;;;;;2.82;100.00;101765.16;5070115;28;20458;-46
2023/04/27 00:22:57;;;;;;;7.40;6.80;;;;;;;2.79;100.00;101771.53;5070552;28;20430;-46
2023/04/27 00:25:25;;;;;;;9.07;7.53;;;;;;;2.72;100.00;101770.31;5070516;28;20530;-49
2023/04/27 00:27:54;;;;;;;8.20;7.67;;;;;;;2.67;100.00;101766.38;5070083;28;20520;-45
2023/04/27 00:30:22;;;;;;;7.30;6.70;;;;;;;2.60;100.00;101762.53;5070164;28;20631;-45
2023/04/27 00:32:50;;;;;;;7.37;6.83;;;;;;;2.55;100.00;101759.44;5069764;28;20430;-51
2023/04/27 00:35:17;;;;;;;6.93;6.53;;;;;;;2.50;100.00;101764.25;5070194;28;20434;-46
2023/04/27 00:37:45;;;;;;;10.33;8.23;;;;;;;2.49;100.00;101773.94;5071111;28;20453;-50
2023/04/27 00:40:13;;;;;;;8.30;7.57;;;;;;;2.46;100.00;101771.53;5070009;28;20438;-47
2023/04/27 00:42:41;;;;;;;7.70;7.10;;;;;;;2.44;100.00;101772.63;5070256;28;20432;-47
2023/04/27 00:45:12;;;;;;;7.90;7.40;;;;;;;2.41;100.00;101767.59;5070441;28;20431;-46
2023/04/27 00:47:40;;;;;;;8.17;7.47;;;;;;;2.39;100.00;101777.41;5070509;28;20535;-45
2023/04/27 00:50:09;;;;;;;7.20;6.70;;;;;;;2.38;100.00;101779.19;5068257;28;20427;-45
2023/04/27 00:52:37;;;;;;;8.37;7.80;;;;;;;2.34;100.00;101772.47;5070377;28;20431;-50
2023/04/27 00:55:06;;;;;;;12.50;7.70;;;;;;;2.33;100.00;101770.78;5070060;28;20434;-48
2023/04/27 00:57:34;;;;;;;15.63;7.30;;;;;;;2.33;100.00;101781.31;5070783;28;20446;-45
2023/04/27 01:00:03;;;;;;;12.87;7.10;;;;;;;2.37;100.00;101774.88;5070597;28;20485;-45
2023/04/27 01:02:33;;;;;;;8.07;7.33;;;;;;;2.42;100.00;101783.25;5065675;28;20497;-50
2023/04/27 01:05:02;;;;;;;7.83;7.10;;;;;;;2.51;100.00;101793.06;5069725;28;20442;-45
2023/04/27 01:07:30;;;;;;;7.67;7.17;;;;;;;2.61;100.00;101798.47;5069522;28;20465;-45
2023/04/27 01:09:57;;;;;;;8.13;7.07;;;;;;;2.69;100.00;101791.63;5070583;28;20426;-45
2023/04/27 01:12:25;;;;;;;7.67;7.03;;;;;;;2.77;100.00;101799.78;5069640;28;21018;-46
2023/04/27 01:14:53;;;;;;;9.37;7.97;;;;;;;2.82;100.00;101794.16;5070282;28;21031;-45
2023/04/27 01:17:20;;;;;;;8.57;7.50;;;;;;;2.87;100.00;101799.06;5070101;28;20454;-51
2023/04/27 01:19:50;;;;;;;9.47;8.40;;;;;;;2.85;100.00;101804.44;5070022;28;20430;-47
2023/04/27 01:22:18;;;;;;;9.00;8.20;;;;;;;2.91;100.00;101811.03;5079521;22;20550;-48
2023/04/27 01:24:47;;;;;;;8.50;7.63;;;;;;;2.95;100.00;101813.31;5050968;28;21092;-45
2023/04/27 01:27:14;;;;;;;11.27;10.20;;;;;;;2.92;100.00;101813.53;5046487;28;20428;-48
2023/04/27 01:29:42;;;;;;;8.33;7.63;;;;;;;2.93;100.00;101814.38;5029985;28;20476;-49
2023/04/27 01:32:11;;;;;;;8.97;8.03;;;;;;;2.94;100.00;101816.03;5024325;28;20448;-46
2023/04/27 01:34:38;;;;;;;7.83;7.40;;;;;;;2.96;100.00;101807.06;5030180;28;20432;-50
2023/04/27 01:37:06;;;;;;;8.07;7.60;;;;;;;2.96;100.00;101811.47;5030809;28;20933;-46
2023/04/27 01:39:34;;;;;;;7.80;7.20;;;;;;;2.96;100.00;101803.56;5030783;28;20435;-48
2023/04/27 01:42:04;;;;;;;8.23;7.60;;;;;;;2.92;100.00;101804.81;5029361;28;20456;-46
2023/04/27 01:44:31;;;;;;;9.40;8.60;;;;;;;2.88;100.00;101806.00;5030700;28;20955;-46
2023/04/27 01:46:59;;;;;;;7.80;7.30;;;;;;;2.83;100.00;101806.38;5034123;28;20432;-46
2023/04/27 01:49:27;;;;;;;12.80;7.63;;;;;;;2.77;100.00;101815.59;5034209;28;20984;-47
2023/04/27 01:51:55;;;;;;;8.33;7.73;;;;;;;2.71;100.00;101815.22;5034343;28;20458;-48
2023/04/27 01:54:22;;;;;;;8.90;8.30;;;;;;;2.66;100.00;101809.47;5030398;28;20464;-46
2023/04/27 01:56:52;;;;;;;8.47;7.97;;;;;;;2.61;100.00;101811.63;5033647;28;20428;-49
2023/04/27 01:59:21;;;;;;;8.77;8.07;;;;;;;2.57;100.00;101804.94;5034230;28;20431;-51
2023/04/27 02:01:48;;;;;;;9.53;7.70;;;;;;;2.55;100.00;101810.31;5033520;28;20459;-46
2023/04/27 02:04:16;;;;;;;9.50;8.60;;;;;;;2.52;100.00;101810.56;5026634;28;20537;-46
2023/04/27 02:06:44;;;;;;;9.07;8.37;;;;;;;2.48;100.00;101806.47;5034531;28;20445;-51
2023/04/27 02:09:12;;;;;;;9.43;8.53;;;;;;;2.44;100.00;101805.03;5033662;28;20467;-47
2023/04/27 02:11:40;;;;;;;8.47;7.83;;;;;;;2.42;100.00;101804.31;5033659;28;20459;-49
2023/04/27 02:14:08;;;;;;;7.93;7.43;;;;;;;2.37;100.00;101803.84;5033328;28;20546;-48
2023/04/27 02:16:37;;;;;;;8.70;7.97;;;;;;;2.32;100.00;101811.25;5033890;28;20512;-44
2023/04/27 02:19:05;;;;;;;10.90;8.07;;;;;;;2.28;100.00;101807.16;5034096;28;20439;-46
2023/04/27 02:21:32;;;;;;;8.73;8.13;;;;;;;2.23;100.00;101809.31;5033793;28;20467;-48
2023/04/27 02:24:00;;;;;;;9.70;9.00;;;;;;;2.17;100.00;101813.25;5032733;28;20485;-46
2023/04/27 02:26:28;;;;;;;8.80;8.40;;;;;;;2.14;100.00;101815.28;5055043;28;20462;-51
2023/04/27 02:28:56;;;;;;;9.10;8.50;;;;;;;2.07;100.00;101816.69;5053373;28;20474;-47
2023/04/27 02:31:25;;;;;;;9.10;8.40;;;;;;;2.02;100.00;101813.56;5053214;28;20458;-46
2023/04/27 02:33:55;;;;;;;8.70;8.00;;;;;;;1.99;100.00;101816.44;5051157;28;20469;-48
2023/04/27 02:36:22;;;;;;;8.30;7.73;;;;;;;1.94;100.00;101821.22;5053440;28;20427;-46
2023/04/27 02:38:50;;;;;;;9.73;8.77;;;;;;;1.88;100.00;101817.22;5053064;28;20423;-46
2023/04/27 02:41:18;;;;;;;13.77;8.80;;;;;;;1.87;100.00;101818.19;5053232;28;20435;-47
2023/04/27 02:43:46;;;;;;;9.23;8.33;;;;;;;1.89;100.00;101820.69;5053246;28;20470;-46
2023/04/27 02:46:14;;;;;;;9.17;8.40;;;;;;;1.90;100.00;101817.13;5053435;28;20427;-50
2023/04/27 02:48:41;;;;;;;9.20;8.37;;;;;;;1.91;100.00;101822.25;5053121;28;20510;-48
2023/04/27 02:51:11;;;;;;;9.57;8.40;;;;;;;1.92;100.00;101817.84;5053480;28;20466;-46
2023/04/27 02:53:38;;;;;;;8.73;8.10;;;;;;;1.97;100.00;101823.63;5052922;28;20459;-50
2023/04/27 02:56:06;;;;;;;11.87;10.93;;;;;;;2.05;100.00;101821.25;5052757;28;20506;-47
2023/04/27 02:58:34;;;;;;;8.57;8.07;;;;;;;2.12;100.00;101833.00;5052822;28;20469;-44
2023/04/27 03:01:02;;;;;;;8.30;7.60;;;;;;;2.27;100.00;101841.50;5052686;28;20925;-43
2023/04/27 03:03:30;;;;;;;9.23;8.63;;;;;;;2.45;100.00;101838.28;5050740;28;20470;-49
2023/04/27 03:05:58;;;;;;;15.80;9.83;;;;;;;2.54;100.00;101845.50;5051908;28;20431;-48
2023/04/27 03:08:27;;;;;;;18.13;9.00;;;;;;;2.62;100.00;101842.28;5052565;28;20530;-49
2023/04/27 03:10:55;;;;;;;9.20;8.70;;;;;;;2.67;100.00;101825.16;5052995;28;20427;-48
2023/04/27 03:13:22;;;;;;;9.97;9.10;;;;;;;2.71;100.00;101823.13;5051602;28;20570;-48
2023/04/27 03:15:50;;;;;;;8.80;8.40;;;;;;;2.73;100.00;101829.09;5052617;28;20497;-51
2023/04/27 03:18:18;;;;;;;9.70;8.90;;;;;;;2.70;100.00;101824.06;5052936;28;20435;-48
2023/04/27 03:20:45;;;;;;;9.87;9.23;;;;;;;2.67;100.00;101821.69;5052303;28;20437;-45
2023/04/27 03:23:13;;;;;;;9.13;8.63;;;;;;;2.62;100.00;101821.22;5051638;28;20463;-45
2023/04/27 03:25:42;;;;;;;10.20;9.50;;;;;;;2.56;100.00;101833.06;5056134;28;20438;-44
2023/04/27 03:28:10;;;;;;;8.77;8.10;;;;;;;2.49;100.00;101828.38;5052019;28;20431;-52
2023/04/27 03:30:39;;;;;;;9.67;8.30;;;;;;;2.45;100.00;101835.66;5051621;28;20467;-49
2023/04/27 03:33:06;;;;;;;8.73;8.03;;;;;;;2.40;100.00;101826.44;5049891;28;20497;-45
2023/04/27 03:35:34;;;;;;;9.50;8.90;;;;;;;2.32;100.00;101823.56;5052268;28;20522;-47
2023/04/27 03:38:02;;;;;;;8.50;8.07;;;;;;;2.28;100.00;101830.00;5051994;28;20538;-46
2023/04/27 03:40:30;;;;;;;9.40;8.70;;;;;;;2.24;100.00;101832.03;5051864;28;20800;-45
2023/04/27 03:42:59;;;;;;;8.37;7.73;;;;;;;2.20;100.00;101831.44;5051278;28;20459;-46
2023/04/27 03:45:27;;;;;;;9.30;8.70;;;;;;;2.17;100.00;101836.94;5050860;28;20443;-50
2023/04/27 03:47:55;;;;;;;9.73;9.10;;;;;;;2.19;100.00;101844.72;5051323;28;20432;-46
2023/04/27 03:50:22;;;;;;;9.17;8.53;;;;;;;2.22;100.00;101840.06;5050814;28;21028;-45
2023/04/27 03:52:50;;;;;;;9.33;8.73;;;;;;;2.30;100.00;101846.53;5048935;28;20452;-47
2023/04/27 03:55:18;;;;;;;9.87;9.27;;;;;;;2.33;100.00;101843.69;5050110;28;21010;-44
2023/04/27 03:57:46;;;;;;;9.67;9.07;;;;;;;2.41;100.00;101846.56;5051722;28;20424;-44
2023/04/27 04:00:15;;;;;;;9.80;9.20;;;;;;;2.48;100.00;101848.59;5050835;28;20427;-50
2023/04/27 04:02:43;;;;;;;10.77;9.97;;;;;;;2.50;100.00;101851.13;5050504;28;20457;-45
2023/04/27 04:05:13;;;;;;;10.40;9.73;;;;;;;2.54;100.00;101863.91;5048908;28;20983;-45
2023/04/27 04:07:42;;;;;;;9.83;9.03;;;;;;;2.57;100.00;101861.06;5049533;28;20763;-45
2023/04/27 04:10:11;;;;;;;11.10;9.10;;;;;;;2.58;100.00;101852.22;5051327;28;21027;-45
2023/04/27 04:12:39;;;;;;;12.90;9.60;;;;;;;2.61;100.00;101854.59;5050540;28;20961;-45
2023/04/27 04:15:08;;;;;;;10.57;9.47;;;;;;;2.65;100.00;101849.94;5050598;28;20462;-46
2023/04/27 04:17:37;;;;;;;9.97;9.17;;;;;;;2.73;100.00;101847.53;5051118;28;20883;-45
2023/04/27 04:20:08;;;;;;;9.83;9.03;;;;;;;2.79;100.00;101861.09;5051040;28;20423;-44
2023/04/27 04:22:37;;;;;;;12.53;10.30;;;;;;;2.91;100.00;101859.28;5050409;28;20822;-44
2023/04/27 04:25:05;;;;;;;9.60;8.87;;;;;;;3.05;100.00;101869.56;5054198;28;20447;-46
2023/04/27 04:27:33;;;;;;;9.77;8.80;;;;;;;3.17;100.00;101859.84;5051074;28;20925;-46
2023/04/27 04:30:03;;;;;;;9.30;8.70;;;;;;;3.42;100.00;101859.59;5051853;28;20471;-48
2023/04/27 04:32:32;;;;;;;8.93;8.43;;;;;;;3.57;100.00;101860.16;5049907;28;20455;-45
2023/04/27 04:35:02;;;;;;;9.30;8.80;;;;;;;3.84;100.00;101857.91;5048234;28;20495;-46
2023/04/27 04:37:32;;;;;;;9.10;8.40;;;;;;;4.39;100.00;101856.78;5051207;28;20497;-44
2023/04/27 04:39:59;;;;;;;9.27;8.50;;;;;;;4.99;100.00;101870.03;5051491;28;20423;-45
2023/04/27 04:42:27;;;;;;;8.97;8.37;;;;;;;5.16;100.00;101886.22;5050739;28;21034;-51
2023/04/27 04:44:55;;;;;;;12.87;8.83;;;;;;;5.15;100.00;101881.91;5049744;28;20456;-49
2023/04/27 04:47:23;;;;;;;10.93;10.07;;;;;;;4.37;100.00;101907.09;5050842;28;20427;-44
2023/04/27 04:49:51;;;;;;;9.13;8.30;;;;;;;3.89;100.00;101919.88;5050316;28;20502;-46
2023/04/27 04:52:20;;;;;;;9.70;9.20;;;;;;;3.76;100.00;101895.44;5050633;28;20456;-45
2023/04/27 04:54:51;;;;;;;9.50;8.87;;;;;;;3.75;100.00;101871.84;5050574;28;20474;-47
2023/04/27 04:57:18;;;;;;;8.47;8.17;;;;;;;3.88;100.00;101859.34;5050078;28;20419;-45
2023/04/27 04:59:46;;;;;;;9.97;9.30;;;;;;;3.96;100.00;101863.97;5050734;28;20450;-45
2023/04/27 05:02:14;;;;;;;9.43;8.90;;;;;;;4.12;100.00;101854.63;5050417;28;20447;-48
2023/04/27 05:04:41;;;;;;;10.43;9.73;;;;;;;4.32;100.00;101858.25;5043463;28;20464;-46
2023/04/27 05:07:10;;;;;;;9.87;9.27;;;;;;;4.54;100.00;101858.09;5050198;28;20431;-46
2023/04/27 05:09:42;;;;;;;8.53;8.13;;;;;;;5.07;100.00;101861.44;5050539;28;20836;-46
2023/04/27 05:12:10;;;;;;;8.70;8.20;;;;;;;5.61;100.00;101863.66;5050182;28;20463;-48
2023/04/27 05:14:37;;;;;;;8.93;8.33;;;;;;;5.71;100.00;101859.19;5049457;28;20520;-45
2023/04/27 05:17:05;;;;;;;8.93;8.23;;;;;;;5.79;100.00;101859.38;5050154;28;20946;-45
2023/04/27 05:19:33;;;;;;;8.00;7.50;;;;;;;6.18;100.00;101859.38;5051510;28;20438;-46
2023/04/27 05:22:01;;;;;;;8.53;8.17;;;;;;;7.21;100.00;101863.66;5056576;28;20474;-45
2023/04/27 05:24:28;;;;;;;8.43;7.83;;;;;;;8.88;100.00;101858.34;5057729;28;20457;-45
2023/04/27 05:26:57;;;;;;;8.57;7.77;;;;;;;10.22;100.00;101855.53;5059343;28;20427;-46
2023/04/27 05:29:28;;;;;;;8.37;7.73;;;;;;;11.48;100.00;101845.69;5056391;28;20458;-45
2023/04/27 05:31:56;;;;;;;8.90;8.40;;;;;;;12.42;100.00;101840.00;5055957;28;20470;-46
2023/04/27 05:34:24;;;;;;;12.80;8.30;;;;;;;13.36;100.00;101839.25;5056433;28;20478;-45
2023/04/27 05:36:51;;;;;;;7.90;7.40;;;;;;;14.20;100.00;101832.25;5057039;28;20831;-53
2023/04/27 05:39:19;;;;;;;6.83;6.53;;;;;;;15.02;100.00;101833.28;5056864;28;20940;-50
2023/04/27 05:41:47;;;;;;;7.30;6.70;;;;;;;15.53;89.03;101835.56;5056560;28;20454;-46
2023/04/27 05:44:15;;;;;;;6.00;5.70;;;;;;;16.16;89.12;101836.91;5056716;28;20438;-46
2023/04/27 05:46:43;;;;;;;6.53;6.00;;;;;;;16.67;80.06;101835.22;5057131;28;20800;-44
2023/04/27 05:49:11;;;;;;;6.53;6.03;;;;;;;17.18;70.39;101843.38;5056826;28;20427;-46
2023/04/27 05:51:40;;;;;;;6.27;5.97;;;;;;;17.31;61.47;101840.66;5056045;28;20513;-48
2023/04/27 05:54:08;;;;;;;5.80;5.57;;;;;;;17.81;64.16;101844.34;5056557;28;20434;-48
2023/04/27 05:56:36;;;;;;;6.63;6.20;;;;;;;17.77;65.67;101842.31;5056378;28;20434;-50
2023/04/27 05:59:04;;;;;;;6.13;5.53;;;;;;;17.93;57.99;101842.59;5056741;28;20430;-45
2023/04/27 06:01:34;;;;;;;6.13;5.83;;;;;;;18.10;57.92;101841.00;5056418;28;20473;-51
2023/04/27 06:04:01;;;;;;;5.63;5.33;;;;;;;18.06;60.45;101849.78;5057104;28;20799;-46
2023/04/27 06:06:32;;;;;;;5.73;5.43;;;;;;;18.24;49.20;101858.78;5055901;28;20954;-44
2023/04/27 06:08:59;;;;;;;5.40;5.03;;;;;;;18.10;58.41;101854.50;5056855;28;20487;-45
2023/04/27 06:11:27;;;;;;;6.63;6.20;;;;;;;18.59;50.15;101861.00;5056892;28;20506;-45
2023/04/27 06:13:55;;;;;;;5.83;5.47;;;;;;;18.40;52.68;101859.28;5057044;28;20458;-45
2023/04/27 06:16:23;;;;;;;5.60;5.30;;;;;;;19.00;49.04;101855.78;5056451;28;20472;-46
2023/04/27 06:18:52;;;;;;;5.67;5.40;;;;;;;18.55;48.98;101854.38;5056716;28;20932;-46
2023/04/27 06:21:20;;;;;;;6.20;5.67;;;;;;;18.91;51.92;101861.69;5056580;28;20441;-46
2023/04/27 06:23:48;;;;;;;5.30;4.90;;;;;;;19.08;46.69;101863.63;5056772;28;20457;-45
2023/04/27 06:26:15;;;;;;;4.93;4.63;;;;;;;19.03;50.42;101855.31;5059957;28;20459;-44
2023/04/27 06:28:43;;;;;;;6.87;5.40;;;;;;;19.09;47.17;101857.13;5057129;28;20434;-44
2023/04/27 06:31:11;;;;;;;5.67;5.20;;;;;;;19.38;48.51;101866.38;5055692;28;20557;-47
2023/04/27 06:33:38;;;;;;;5.33;4.93;;;;;;;19.30;46.10;101859.38;5053323;28;20522;-45
2023/04/27 06:36:08;;;;;;;5.43;4.93;;;;;;;19.23;41.96;101858.63;5050605;28;20459;-45
2023/04/27 06:38:35;;;;;;;4.30;4.10;;;;;;;19.29;47.83;101862.31;5053583;28;20427;-47
2023/04/27 06:41:03;;;;;;;4.77;4.47;;;;;;;18.88;43.77;101862.16;5053764;28;20792;-46
2023/04/27 06:43:31;;;;;;;5.03;4.73;;;;;;;19.25;47.46;101861.13;5053392;28;20426;-47
2023/04/27 06:45:59;;;;;;;5.23;4.83;;;;;;;19.57;45.80;101864.47;5052988;28;20466;-44
2023/04/27 06:48:26;;;;;;;5.20;4.90;;;;;;;19.64;43.55;101862.50;5053241;28;20932;-44
2023/04/27 06:50:55;;;;;;;4.97;4.67;;;;;;;19.54;43.78;101868.47;5052715;28;20466;-46
2023/04/27 06:53:24;;;;;;;5.00;4.70;;;;;;;18.83;42.07;101865.53;5052850;28;20443;-45
2023/04/27 06:55:52;;;;;;;5.03;4.80;;;;;;;18.70;46.68;101865.66;5052111;28;20479;-44
2023/04/27 06:58:19;;;;;;;5.20;4.80;;;;;;;18.94;45.71;101867.50;5053154;28;20435;-44
2023/04/27 07:00:47;;;;;;;5.00;4.70;;;;;;;19.33;47.24;101866.19;5052531;28;20481;-50
2023/04/27 07:03:15;;;;;;;6.20;4.50;;;;;;;19.81;45.97;101867.03;5052973;28;20463;-45
2023/04/27 07:05:43;;;;;;;4.53;4.13;;;;;;;19.87;45.15;101876.97;5051817;28;20462;-46
2023/04/27 07:08:11;;;;;;;5.57;5.17;;;;;;;19.45;42.65;101869.81;5052678;28;20804;-43
2023/04/27 07:10:40;;;;;;;5.40;4.90;;;;;;;19.47;42.54;101869.63;5052841;28;20423;-45
2023/04/27 07:13:07;;;;;;;6.80;5.23;;;;;;;19.25;41.81;101870.06;5052599;28;20474;-49
2023/04/27 07:15:36;;;;;;;4.90;4.50;;;;;;;19.22;43.73;101873.22;5052356;28;20455;-46
2023/04/27 07:18:04;;;;;;;3.97;3.63;;;;;;;18.81;41.05;101867.66;5052364;28;20795;-44
2023/04/27 07:20:32;;;;;;;4.00;3.70;;;;;;;18.38;44.71;101874.84;5052774;28;20431;-46
2023/04/27 07:23:00;;;;;;;4.30;3.83;;;;;;;18.35;45.36;101878.00;5052353;28;20504;-43
2023/04/27 07:25:27;;;;;;;5.00;4.60;;;;;;;17.60;41.16;101880.56;5056047;28;20871;-47
2023/04/27 07:27:58;;;;;;;4.87;4.50;;;;;;;16.48;44.90;101882.69;5052709;28;20485;-44
2023/04/27 07:30:29;;;;;;;6.70;4.43;;;;;;;15.13;47.10;101894.50;5060724;22;20491;-44
2023/04/27 07:32:57;;;;;;;5.00;4.70;;;;;;;14.94;49.71;101887.97;5051869;28;21243;-46
2023/04/27 07:35:25;;;;;;;6.90;4.50;;;;;;;14.89;49.99;101879.69;5049259;28;20485;-45
2023/04/27 07:37:53;;;;;;;4.33;4.00;;;;;;;13.88;50.38;101892.63;5052568;28;20434;-47
2023/04/27 07:40:23;;;;;;;4.80;4.30;;;;;;;13.06;52.25;101897.34;5051919;28;20454;-45
2023/04/27 07:42:50;;;;;;;5.50;4.10;;;;;;;12.31;53.06;101898.41;5051638;28;20480;-45
2023/04/27 07:45:20;;;;;;;4.23;3.93;;;;;;;11.62;52.27;101903.69;5051737;28;20982;-43
2023/04/27 07:47:48;;;;;;;4.87;3.97;;;;;;;11.24;52.44;101911.72;5052333;28;20431;-45
2023/04/27 07:50:17;;;;;;;7.33;4.03;;;;;;;11.22;55.62;101911.06;5051894;28;20455;-46
2023/04/27 07:52:45;;;;;;;5.83;3.83;;;;;;;10.92;55.19;101910.81;5051986;28;20471;-44
2023/04/27 07:55:12;;;;;;;4.40;4.10;;;;;;;10.96;55.31;101904.13;5051039;28;20469;-48
2023/04/27 07:57:40;;;;;;;4.57;3.70;;;;;;;11.40;55.14;101901.81;5051910;28;20428;-42
2023/04/27 08:00:10;;;;;;;4.87;4.47;;;;;;;11.36;57.41;101896.97;5051867;28;20494;-45
2023/04/27 08:02:39;;;;;;;3.80;3.50;;;;;;;11.45;55.86;101899.44;5051308;28;20959;-44
2023/04/27 08:05:07;;;;;;;6.67;3.70;;;;;;;11.70;54.65;101900.19;5050184;28;20525;-48
2023/04/27 08:07:35;;;;;;;4.33;3.70;;;;;;;12.11;55.56;101896.25;5051573;28;20446;-52
2023/04/27 08:10:10;;;;;;;4.63;4.00;;;;;;;12.91;57.75;101891.16;5051118;28;20999;-45
2023/04/27 08:12:38;;;;;;;4.33;4.00;;;;;;;12.69;56.17;101892.88;5051096;28;20864;-47
2023/04/27 08:15:07;;;;;;;5.00;4.27;;;;;;;12.59;55.73;101895.00;5050797;28;20474;-47
2023/04/27 08:17:35;;;;;;;4.30;4.00;;;;;;;13.37;55.19;101885.63;5051760;28;20488;-45
2023/04/27 08:20:05;;;;;;;4.47;4.27;;;;;;;14.07;49.97;101883.09;5051252;28;20508;-47
2023/04/27 08:22:34;;;;;;;4.80;4.50;;;;;;;14.05;50.38;101879.78;5050990;28;20809;-45
2023/04/27 08:25:03;;;;;;;4.77;4.33;;;;;;;13.83;48.30;101881.63;5050838;28;20454;-48
2023/04/27 08:27:30;;;;;;;4.30;3.90;;;;;;;13.64;47.48;101888.44;5051265;28;20432;-50
2023/04/27 08:29:59;;;;;;;7.70;4.20;;;;;;;13.41;49.69;101894.97;5051140;28;20467;-47
2023/04/27 08:32:27;;;;;;;6.70;4.10;;;;;;;13.78;50.67;101892.94;5051251;28;20927;-48
2023/04/27 08:34:55;;;;;;;4.90;4.50;;;;;;;13.60;50.38;101884.47;5050646;28;20849;-48
2023/04/27 08:37:24;;;;;;;5.93;3.90;;;;;;;13.48;52.03;101895.84;5050891;28;20431;-45
2023/04/27 08:39:51;;;;;;;4.87;4.27;;;;;;;13.35;52.60;101901.06;5051169;28;20481;-42
2023/04/27 08:42:19;;;;;;;4.20;3.90;;;;;;;13.25;49.04;101893.31;5050888;28;20435;-45
2023/04/27 08:44:47;;;;;;;4.00;3.60;;;;;;;13.17;48.79;101891.53;5050443;28;20554;-47
2023/04/27 08:47:15;;;;;;;4.90;4.50;;;;;;;12.50;50.56;101904.13;5050761;28;20427;-46
2023/04/27 08:49:42;;;;;;;4.90;4.47;;;;;;;12.94;50.08;101898.81;5050820;28;20435;-46
2023/04/27 08:52:11;;;;;;;4.93;4.53;;;;;;;13.10;49.47;101900.53;5050212;28;20570;-43
2023/04/27 08:54:41;;;;;;;4.83;4.20;;;;;;;13.23;47.64;101892.69;5049606;28;20455;-46
2023/04/27 08:57:10;;;;;;;7.13;4.77;;;;;;;13.68;48.00;101891.56;5050969;28;20443;-49
2023/04/27 08:59:38;;;;;;;4.63;4.20;;;;;;;13.94;46.97;101891.03;5050898;28;20443;-44
2023/04/27 09:02:05;;;;;;;4.30;4.00;;;;;;;14.03;46.52;101892.56;5050178;28;20497;-45
2023/04/27 09:04:37;;;;;;;3.80;3.50;;;;;;;13.73;46.24;101898.03;5050177;28;20467;-45
2023/04/27 09:07:12;;;;;;;4.43;4.03;;;;;;;13.53;48.26;101898.81;5050466;28;20434;-49
2023/04/27 09:09:41;;;;;;;4.20;4.00;;;;;;;13.00;48.41;101899.91;5050590;28;20441;-46
2023/04/27 09:12:17;;;;;;;3.93;3.70;;;;;;;12.86;49.55;101898.91;5050198;28;20467;-45
2023/04/27 09:14:56;;;;;;;4.50;4.20;;;;;;;12.99;53.17;101896.41;5049443;28;20458;-49
2023/04/27 09:17:27;;;;;;;7.03;4.50;;;;;;;13.53;51.06;101901.50;5049819;28;20431;-45
2023/04/27 09:20:07;;;;;;;7.20;4.80;;;;;;;13.91;49.45;101891.41;5050346;28;20514;-44
2023/04/27 09:22:43;;;;;;;6.43;4.80;;;;;;;13.96;49.24;101887.13;5049847;28;20431;-43
2023/04/27 09:25:22;;;;;;;6.77;4.10;;;;;;;13.84;49.88;101900.22;5054282;28;20496;-46
2023/04/27 09:27:50;;;;;;;6.20;4.40;;;;;;;13.82;50.19;101896.91;5050560;28;20424;-46
2023/04/27 09:30:18;;;;;;;4.83;4.10;;;;;;;13.18;53.28;101911.13;5050148;28;20915;-46
2023/04/27 09:32:51;;;;;;;7.57;3.97;;;;;;;12.66;51.29;101905.81;5049889;28;20493;-48
2023/04/27 09:35:22;;;;;;;5.00;4.50;;;;;;;12.92;54.58;101906.22;5049744;28;20483;-46
2023/04/27 09:37:52;;;;;;;7.47;4.03;;;;;;;12.97;53.47;101903.81;5049773;28;20423;-50
2023/04/27 09:40:25;;;;;;;4.33;4.00;;;;;;;12.24;54.27;101903.66;5049934;28;20550;-45
2023/04/27 09:42:54;;;;;;;4.17;3.87;;;;;;;12.75;55.97;101905.53;5050220;28;20511;-46
2023/04/27 09:45:23;;;;;;;4.77;4.47;;;;;;;12.59;54.54;101897.66;5050303;28;20471;-46
2023/04/27 09:47:51;;;;;;;4.53;4.13;;;;;;;12.80;52.95;101898.81;5049450;28;20427;-43
2023/04/27 09:50:20;;;;;;;4.27;3.87;;;;;;;12.61;51.20;101903.66;5050238;28;20550;-46
2023/04/27 09:52:48;;;;;;;4.20;3.97;;;;;;;12.45;52.58;101903.00;5049943;28;20562;-46
2023/04/27 09:55:19;;;;;;;3.80;3.53;;;;;;;11.95;51.56;101906.19;5049841;28;20516;-46
2023/04/27 09:57:55;;;;;;;3.40;3.20;;;;;;;11.55;52.95;101902.75;5049568;28;20920;-46
2023/04/27 10:00:48;;;;;;;4.23;3.73;;;;;;;11.41;55.91;101902.66;5049939;28;20526;-47
2023/04/27 10:03:22;;;;;;;4.43;3.57;;;;;;;11.83;58.97;101915.63;5049923;28;20937;-44
2023/04/27 10:06:36;;;;;;;5.90;3.77;;;;;;;12.65;52.48;101890.75;5050003;28;20496;-46
2023/04/27 10:09:05;;;;;;;4.03;3.67;;;;;;;13.06;51.85;101908.06;5054018;28;20951;-47
2023/04/27 10:11:39;;;;;;;4.07;3.77;;;;;;;12.54;51.14;101907.25;5053826;28;20910;-46
2023/04/27 10:14:10;;;;;;;4.90;3.60;;;;;;;11.75;52.59;101911.19;5053157;28;20470;-48
2023/04/27 10:16:45;;;;;;;3.63;3.33;;;;;;;11.94;52.52;101904.56;5053970;28;20458;-45
2023/04/27 10:19:13;;;;;;;3.70;2.90;;;;;;;12.61;50.45;101890.28;5053702;28;20834;-50
2023/04/27 10:21:52;;;;;;;7.50;3.87;;;;;;;13.08;48.43;101897.22;5053000;28;20462;-45
2023/04/27 10:24:31;;;;;;;3.63;3.40;;;;;;;13.41;47.58;101900.31;5053039;28;20960;-43
2023/04/27 10:27:04;;;;;;;4.10;3.47;;;;;;;13.48;47.78;101899.38;5051100;28;20439;-44
2023/04/27 10:29:38;;;;;;;4.00;3.60;;;;;;;13.50;45.72;101899.19;5052572;28;20498;-46
2023/04/27 10:32:07;;;;;;;4.10;3.80;;;;;;;13.73;47.63;101894.53;5052978;28;20471;-47
2023/04/27 10:34:36;;;;;;;4.73;4.33;;;;;;;14.06;47.16;101902.91;5049682;28;20463;-46
2023/04/27 10:37:08;;;;;;;4.40;4.00;;;;;;;14.24;46.06;101906.81;5053686;28;20427;-46
2023/04/27 10:39:38;;;;;;;4.30;3.83;;;;;;;14.15;47.04;101907.97;5053243;28;20484;-46
2023/04/27 10:42:27;;;;;;;5.60;5.10;;;;;;;13.91;46.83;101919.06;5053367;28;20416;-50
2023/04/27 10:44:58;;;;;;;3.87;3.53;;;;;;;13.45;46.17;101917.66;5052555;28;20467;-46
2023/04/27 10:47:37;;;;;;;3.70;3.50;;;;;;;13.62;44.62;101914.59;5053962;28;20423;-52
2023/04/27 10:50:06;;;;;;;3.77;3.40;;;;;;;13.39;46.92;101918.41;5051896;28;20542;-43
2023/04/27 10:52:34;;;;;;;4.57;4.10;;;;;;;13.28;49.90;101923.25;5053060;28;20514;-50
2023/04/27 10:55:13;;;;;;;3.30;3.10;;;;;;;13.12;46.11;101930.63;5052787;28;20459;-48
2023/04/27 10:57:49;;;;;;;3.40;3.20;;;;;;;13.07;46.26;101922.28;5052436;28;20802;-50
2023/04/27 11:00:23;;;;;;;3.77;3.57;;;;;;;13.07;46.36;101924.97;5053116;28;20455;-48
2023/04/27 11:02:51;;;;;;;4.00;3.70;;;;;;;13.11;46.26;101931.66;5052672;28;20800;-45
2023/04/27 11:05:20;;;;;;;3.70;3.40;;;;;;;12.68;47.45;101925.19;5050142;28;20621;-44
2023/04/27 11:07:48;;;;;;;3.67;3.30;;;;;;;12.62;47.65;101924.06;5052721;28;20550;-43
2023/04/27 11:10:17;;;;;;;3.87;3.57;;;;;;;12.80;47.57;101923.72;5053161;28;20809;-45
2023/04/27 11:12:45;;;;;;;7.67;4.13;;;;;;;13.12;47.76;101927.94;5052185;28;20804;-50
2023/04/27 11:15:13;;;;;;;3.83;3.47;;;;;;;13.55;44.46;101929.78;5051786;28;20480;-45
2023/04/27 11:17:43;;;;;;;3.23;2.93;;;;;;;13.70;45.13;101929.75;5052105;28;20435;-46
2023/04/27 11:20:11;;;;;;;3.60;3.30;;;;;;;13.68;46.36;101929.91;5052928;28;20831;-45
2023/04/27 11:22:45;;;;;;;3.70;3.40;;;;;;;13.40;45.85;101928.97;5052797;28;20782;-51
2023/04/27 11:25:13;;;;;;;4.43;3.70;;;;;;;13.28;45.35;101931.28;5056195;28;20458;-47
2023/04/27 11:27:41;;;;;;;4.13;3.73;;;;;;;13.22;46.32;101931.19;5051714;28;20431;-47
2023/04/27 11:30:20;;;;;;;3.70;3.50;;;;;;;13.45;45.02;101937.25;5052212;28;20474;-48
2023/04/27 11:32:50;;;;;;;6.20;3.93;;;;;;;13.41;48.94;101933.28;5053004;28;20416;-45